Time;durP1;ratioP1;P1;durP2;ratioP2;P2;SDS_P1;SDS_P2;PMS_P1;PMS_P2;Temp;Humidity;BMP_temperature;BMP_pressure;BME280_temperature;BME280_humidity;BME280_pressure;Samples;Min_cycle;Max_cycle;Signal;HPM_P1;HPM_P2
2022/12/10 00:01:30;;;;;;;11.15;7.50;;;2.30;99.90;;;;;;4927962;29;20507;-73
2022/12/10 00:03:56;;;;;;;20.70;6.85;;;2.30;99.90;;;;;;4929539;29;20077;-73
2022/12/10 00:06:24;;;;;;;17.20;8.48;;;2.30;99.90;;;;;;4929331;29;20717;-73
2022/12/10 00:08:51;;;;;;;17.48;8.95;;;2.30;99.90;;;;;;4929610;29;20048;-73
2022/12/10 00:11:19;;;;;;;22.63;9.57;;;2.40;99.90;;;;;;4929215;29;20032;-73
2022/12/10 00:13:46;;;;;;;13.30;6.90;;;2.80;99.90;;;;;;4928600;29;20089;-73
2022/12/10 00:16:14;;;;;;;25.80;8.10;;;2.30;99.90;;;;;;4928944;29;20036;-73
2022/12/10 00:18:40;;;;;;;20.00;8.48;;;2.30;99.90;;;;;;4929089;29;20032;-73
2022/12/10 00:21:09;;;;;;;21.48;8.35;;;2.40;99.90;;;;;;4931842;29;20050;-73
2022/12/10 00:23:35;;;;;;;26.38;8.38;;;2.40;99.90;;;;;;4932166;29;20032;-73
2022/12/10 00:26:03;;;;;;;10.67;6.47;;;2.40;99.90;;;;;;4932252;29;20024;-73
2022/12/10 00:28:29;;;;;;;19.33;7.53;;;;;;;;;;4930954;29;20036;-73
2022/12/10 00:30:55;;;;;;;26.35;9.00;;;;;;;;;;4932295;29;20023;-73
2022/12/10 00:33:21;;;;;;;19.88;8.15;;;;;;;;;;4932285;29;20020;-73
2022/12/10 00:35:47;;;;;;;17.83;7.20;;;;;;;;;;4931823;29;20063;-73
2022/12/10 00:38:13;;;;;;;19.30;7.97;;;;;;;;;;4932260;29;20032;-74
2022/12/10 00:40:39;;;;;;;16.25;6.30;;;;;;;;;;4932112;29;20513;-73
2022/12/10 00:43:05;;;;;;;24.05;8.50;;;;;;;;;;4931989;29;20032;-73
2022/12/10 00:45:31;;;;;;;18.60;7.45;;;;;;;;;;4931815;29;20060;-73
2022/12/10 00:47:57;;;;;;;13.25;6.38;;;;;;;;;;4932047;29;20114;-73
2022/12/10 00:50:23;;;;;;;13.95;4.95;;;;;;;;;;4931832;29;20094;-73
2022/12/10 00:52:49;;;;;;;12.82;5.63;;;;;;;;;;4931910;29;20067;-73
2022/12/10 00:55:15;;;;;;;10.07;5.43;;;;;;;;;;4932016;29;20176;-73
2022/12/10 00:57:41;;;;;;;13.65;4.90;;;;;;;;;;4931965;29;20040;-73
2022/12/10 01:00:07;;;;;;;15.55;6.85;;;2.10;99.90;;;;;;4931674;29;20024;-73
2022/12/10 01:02:33;;;;;;;21.13;6.78;;;;;;;;;;4930546;29;20095;-73
2022/12/10 01:04:59;;;;;;;15.43;7.30;;;;;;;;;;4931729;29;20035;-73
2022/12/10 01:07:24;;;;;;;16.90;6.60;;;2.30;99.90;;;;;;4931999;29;20079;-73
2022/12/10 01:09:50;;;;;;;16.98;6.85;;;;;;;;;;4931288;29;20043;-73
2022/12/10 01:12:16;;;;;;;8.88;4.70;;;;;;;;;;4931670;29;20454;-73
2022/12/10 01:14:42;;;;;;;13.27;6.78;;;;;;;;;;4931094;29;20031;-73
2022/12/10 01:17:08;;;;;;;12.40;5.85;;;;;;;;;;4931378;29;20406;-73
2022/12/10 01:19:34;;;;;;;11.27;5.63;;;2.30;99.90;;;;;;4931822;29;20449;-74
2022/12/10 01:22:01;;;;;;;11.95;5.22;;;;;;;;;;4931703;29;20035;-73
2022/12/10 01:24:28;;;;;;;23.10;5.07;;;2.20;99.90;;;;;;4931294;29;20027;-73
2022/12/10 01:26:55;;;;;;;12.68;6.25;;;2.20;99.90;;;;;;4931469;29;20035;-73
2022/12/10 01:29:21;;;;;;;16.15;6.07;;;;;;;;;;4931803;29;20020;-73
2022/12/10 01:31:51;;;;;;;13.32;5.30;;;2.30;99.90;;;;;;4930572;29;20032;-73
2022/12/10 01:34:17;;;;;;;14.85;5.30;;;;;;;;;;4931512;29;20028;-73
2022/12/10 01:36:44;;;;;;;20.50;5.47;;;2.30;99.90;;;;;;4931015;29;20047;-74
2022/12/10 01:39:11;;;;;;;;;;;2.30;99.90;;;;;;4931726;29;20332;-73
2022/12/10 01:41:41;;;;;;;13.15;7.22;;;2.20;99.90;;;;;;4931098;29;19914;-73
2022/12/10 01:44:10;;;;;;;6.63;4.30;;;2.30;99.90;;;;;;4931046;29;20028;-73
2022/12/10 01:46:36;;;;;;;12.85;5.65;;;;;;;;;;4931171;29;20039;-73
2022/12/10 01:49:04;;;;;;;5.72;4.03;;;2.20;99.90;;;;;;4931006;29;20036;-73
2022/12/10 01:51:33;;;;;;;22.08;4.47;;;2.20;99.90;;;;;;4931029;28;20086;-73
2022/12/10 01:54:00;;;;;;;8.77;4.80;;;2.20;99.90;;;;;;4930385;29;20050;-73
2022/12/10 01:56:26;;;;;;;12.88;5.38;;;;;;;;;;4929431;29;20424;-73
2022/12/10 01:58:54;;;;;;;13.95;6.75;;;2.20;99.90;;;;;;4931036;29;20035;-73
2022/12/10 02:01:43;;;;;;;14.90;6.57;;;2.30;99.90;;;;;;4930910;29;20346;-73
2022/12/10 02:04:16;;;;;;;11.40;5.63;;;2.20;99.90;;;;;;4930519;29;20493;-73
2022/12/10 02:06:54;;;;;;;14.52;6.03;;;2.20;99.90;;;;;;4931040;29;20031;-73
2022/12/10 02:09:44;;;;;;;9.43;4.32;;;2.40;99.90;;;;;;4930226;29;20027;-73
2022/12/10 02:12:25;;;;;;;9.75;4.15;;;2.40;99.90;;;;;;4930662;29;20160;-73
2022/12/10 02:15:14;;;;;;;9.82;4.60;;;2.10;99.90;;;;;;4923622;29;20110;-73
2022/12/10 02:18:05;;;;;;;11.45;5.45;;;2.20;99.90;;;;;;4930362;29;20291;-73
2022/12/10 02:20:53;;;;;;;10.13;4.22;;;2.00;99.90;;;;;;4915413;29;20098;-73
2022/12/10 02:23:22;;;;;;;;;;;2.10;99.90;;;;;;4930598;29;20016;-73
2022/12/10 02:25:51;;;;;;;8.32;4.47;;;2.00;99.90;;;;;;4930195;29;20009;-73
2022/12/10 02:28:38;;;;;;;10.50;3.90;;;2.00;99.90;;;;;;4930391;29;20453;-73
2022/12/10 02:31:05;;;;;;;13.63;5.15;;;1.90;99.90;;;;;;4929519;29;20043;-73
2022/12/10 02:33:33;;;;;;;11.63;5.47;;;2.00;99.90;;;;;;4930648;29;20492;-73
2022/12/10 02:36:00;;;;;;;13.02;5.05;;;1.90;99.90;;;;;;4930111;29;20429;-73
2022/12/10 02:38:28;;;;;;;13.95;6.88;;;2.10;99.90;;;;;;4930052;29;20034;-74
2022/12/10 02:40:59;;;;;;;13.00;5.65;;;2.00;99.90;;;;;;4930080;29;20061;-74
2022/12/10 02:43:28;;;;;;;11.18;5.65;;;2.00;99.90;;;;;;4930197;29;20028;-73
2022/12/10 02:45:56;;;;;;;21.67;5.15;;;2.00;99.90;;;;;;4930142;29;20031;-73
2022/12/10 02:48:23;;;;;;;9.35;6.03;;;1.70;99.90;;;;;;4929955;29;20095;-73
2022/12/10 02:50:49;;;;;;;22.02;8.32;;;;;;;;;;4930184;29;20031;-73
2022/12/10 02:53:15;;;;;;;13.38;6.63;;;;;;;;;;4929684;29;20043;-73
2022/12/10 02:56:14;;;;;;;23.63;7.38;;;2.00;99.90;;;;;;4929973;29;20036;-74
2022/12/10 02:59:06;;;;;;;13.60;7.45;;;1.50;99.90;;;;;;4930181;29;20031;-74
2022/12/10 03:01:53;;;;;;;8.27;6.35;;;1.80;99.90;;;;;;4930140;29;20362;-73
2022/12/10 03:04:42;;;;;;;8.70;6.50;;;1.70;99.90;;;;;;4960024;28;20044;-73
2022/12/10 03:07:15;;;;;;;12.45;7.20;;;1.70;99.90;;;;;;4929677;28;20044;-73
2022/12/10 03:09:53;;;;;;;20.85;6.97;;;1.60;99.90;;;;;;4929645;29;20043;-73
2022/12/10 03:12:21;;;;;;;;;;;1.60;99.90;;;;;;4930081;29;20151;-74
2022/12/10 03:14:47;;;;;;;10.02;5.50;;;1.60;99.90;;;;;;4929154;29;20315;-73
2022/12/10 03:17:14;;;;;;;7.07;5.90;;;1.60;99.90;;;;;;4929336;29;20040;-74
2022/12/10 03:19:45;;;;;;;9.43;5.28;;;1.60;99.90;;;;;;4929943;29;20027;-73
2022/12/10 03:22:12;;;;;;;11.90;4.80;;;1.60;99.90;;;;;;4929447;29;20031;-73
2022/12/10 03:24:41;;;;;;;9.85;5.57;;;1.60;99.90;;;;;;4930038;29;20022;-73
2022/12/10 03:27:08;;;;;;;10.70;5.55;;;1.60;99.90;;;;;;4929047;29;20042;-73
2022/12/10 03:29:43;;;;;;;10.98;5.57;;;1.60;99.90;;;;;;4929418;29;20035;-73
2022/12/10 03:32:09;;;;;;;9.00;5.57;;;;;;;;;;4928393;29;20099;-74
2022/12/10 03:34:36;;;;;;;7.97;5.07;;;0.10;99.90;;;;;;4929265;29;20631;-74
2022/12/10 03:37:02;;;;;;;10.27;6.10;;;;;;;;;;4927321;29;20420;-73
2022/12/10 03:39:28;;;;;;;9.48;4.90;;;1.50;99.90;;;;;;4929270;29;20271;-73
2022/12/10 03:41:54;;;;;;;15.32;7.00;;;1.40;99.90;;;;;;4929091;29;20038;-73
2022/12/10 03:44:50;;;;;;;7.78;4.68;;;1.80;99.90;;;;;;4929122;29;20020;-73
2022/12/10 03:47:16;;;;;;;13.73;5.13;;;;;;;;;;4924902;29;20043;-72
2022/12/10 03:49:42;;;;;;;6.35;4.22;;;1.20;99.90;;;;;;4928800;29;20040;-73
2022/12/10 03:52:08;;;;;;;9.75;5.32;;;;;;;;;;4929440;29;20031;-73
2022/12/10 03:54:34;;;;;;;8.10;5.35;;;;;;;;;;4929749;29;20047;-73
2022/12/10 03:57:00;;;;;;;10.95;5.55;;;;;;;;;;4933123;29;20061;-73
2022/12/10 03:59:27;;;;;;;8.55;6.60;;;;;;;;;;4932818;29;20039;-73
2022/12/10 04:01:53;;;;;;;9.23;5.07;;;1.50;99.90;;;;;;4932988;29;20038;-73
2022/12/10 04:04:19;;;;;;;8.43;4.72;;;;;;;;;;4932500;29;20028;-74
2022/12/10 04:06:45;;;;;;;13.98;5.57;;;;;;;;;;4933256;29;20035;-73
2022/12/10 04:09:12;;;;;;;9.95;5.75;;;1.60;99.90;;;;;;4932351;29;20733;-73
2022/12/10 04:11:38;;;;;;;11.77;5.50;;;;;;;;;;4932963;29;20031;-73
2022/12/10 04:16:49;;;;;;;9.00;4.90;;;;;;;;;;4932750;29;20059;-73
2022/12/10 04:19:16;;;;;;;4.55;3.85;;;1.60;99.90;;;;;;4932408;29;20016;-73
2022/12/10 04:27:21;;;;;;;22.33;5.25;;;1.40;99.90;;;;;;4932057;29;20078;-73
2022/12/10 04:29:47;;;;;;;5.20;4.63;;;1.50;99.90;;;;;;4932297;29;20524;-74
2022/12/10 04:32:13;;;;;;;16.48;5.07;;;;;;;;;;4932271;29;20035;-73
2022/12/10 04:34:39;;;;;;;12.38;5.85;;;;;;;;;;4932282;29;20039;-73
2022/12/10 04:37:05;;;;;;;11.05;5.28;;;1.00;99.90;;;;;;4932110;29;20131;-73
2022/12/10 04:39:31;;;;;;;12.00;7.10;;;;;;;;;;4932188;29;20032;-73
2022/12/10 04:41:58;;;;;;;9.93;4.93;;;1.40;99.90;;;;;;4932188;29;20011;-73
2022/12/10 04:44:24;;;;;;;20.30;8.93;;;;;;;;;;4930169;29;20417;-74
2022/12/10 04:46:50;;;;;;;8.13;4.88;;;;;;;;;;4932752;29;20024;-74
2022/12/10 04:49:16;;;;;;;12.32;6.03;;;1.50;99.90;;;;;;4931841;29;20032;-73
2022/12/10 04:51:42;;;;;;;11.30;5.13;;;1.50;99.90;;;;;;4930543;29;20056;-73
2022/12/10 04:54:09;;;;;;;9.70;4.45;;;;;;;;;;4932074;29;20163;-73
2022/12/10 04:56:35;;;;;;;9.18;6.18;;;1.50;99.90;;;;;;4931931;29;20608;-73
2022/12/10 04:59:01;;;;;;;12.45;6.45;;;;;;;;;;4932088;29;20027;-74
2022/12/10 05:01:27;;;;;;;11.90;5.65;;;1.50;99.90;;;;;;4931869;29;20127;-73
2022/12/10 05:03:53;;;;;;;11.88;6.32;;;1.50;99.90;;;;;;4931714;29;20062;-73
2022/12/10 05:06:20;;;;;;;8.30;5.18;;;1.40;99.90;;;;;;4930958;29;20028;-73
2022/12/10 05:08:47;;;;;;;7.53;5.13;;;1.40;99.90;;;;;;4932260;29;20024;-73
2022/12/10 05:11:18;;;;;;;9.37;5.83;;;1.40;99.90;;;;;;4931697;29;20028;-74
2022/12/10 05:13:44;;;;;;;12.63;6.20;;;1.50;99.90;;;;;;4931604;29;20028;-73
2022/12/10 05:16:13;;;;;;;15.35;6.82;;;1.40;99.90;;;;;;4931465;29;20037;-73
2022/12/10 05:18:39;;;;;;;6.57;4.57;;;;;;;;;;4931533;29;20474;-73
2022/12/10 05:21:07;;;;;;;12.57;5.75;;;0.30;99.90;;;;;;4931387;29;20382;-73
2022/12/10 05:23:36;;;;;;;9.98;4.72;;;1.60;99.90;;;;;;4931959;29;20123;-73
2022/12/10 05:26:09;;;;;;;12.00;5.38;;;1.60;99.90;;;;;;4931482;29;20481;-73
2022/12/10 05:28:38;;;;;;;12.85;4.80;;;1.60;99.90;;;;;;4931587;29;20036;-73
2022/12/10 05:31:04;;;;;;;16.48;5.88;;;;;;;;;;4931363;29;20028;-73
2022/12/10 05:33:30;;;;;;;10.05;5.72;;;1.40;99.90;;;;;;4931505;29;20032;-74
2022/12/10 05:35:59;;;;;;;6.78;4.35;;;1.50;99.90;;;;;;4931443;29;20107;-73
2022/12/10 05:38:26;;;;;;;13.75;7.38;;;1.50;99.90;;;;;;4931053;29;20044;-73
2022/12/10 05:40:51;;;;;;;11.90;5.97;;;1.50;99.90;;;;;;4931533;29;20118;-73
2022/12/10 05:43:18;;;;;;;12.80;6.60;;;;;;;;;;4931375;29;20159;-74
2022/12/10 05:45:43;;;;;;;9.98;5.47;;;;;;;;;;4930851;29;20032;-73
2022/12/10 05:48:14;;;;;;;11.85;6.47;;;1.60;99.90;;;;;;4931005;29;20607;-73
2022/12/10 05:50:41;;;;;;;12.68;6.70;;;1.60;99.90;;;;;;4929917;29;20412;-73
2022/12/10 05:53:07;;;;;;;17.70;7.68;;;;;;;;;;4930927;29;20042;-73
2022/12/10 05:55:33;;;;;;;13.40;5.93;;;;;;;;;;4930956;29;20386;-74
2022/12/10 05:57:59;;;;;;;12.57;5.68;;;1.60;99.90;;;;;;4930835;29;20032;-73
2022/12/10 06:00:27;;;;;;;13.85;6.50;;;1.60;99.90;;;;;;4931046;29;20027;-73
2022/12/10 06:02:54;;;;;;;10.65;4.47;;;1.50;99.90;;;;;;4931082;29;20036;-74
2022/12/10 06:05:20;;;;;;;14.00;6.43;;;1.60;99.90;;;;;;4931268;29;20604;-73
2022/12/10 06:07:46;;;;;;;17.20;8.68;;;;;;;;;;4930803;29;20157;-74
2022/12/10 06:10:12;;;;;;;9.93;5.18;;;1.80;99.90;;;;;;4931394;29;20492;-74
2022/12/10 06:12:38;;;;;;;16.58;7.55;;;;;;;;;;4930738;29;20039;-73
2022/12/10 06:15:05;;;;;;;9.30;4.60;;;1.60;99.90;;;;;;4930441;29;20028;-74
2022/12/10 06:17:31;;;;;;;15.77;5.90;;;1.60;99.90;;;;;;4930299;29;20035;-74
2022/12/10 06:19:57;;;;;;;10.25;5.15;;;1.50;99.90;;;;;;4930992;29;20079;-74
2022/12/10 06:22:23;;;;;;;12.73;7.13;;;2.20;99.90;;;;;;4930821;29;20086;-74
2022/12/10 06:24:49;;;;;;;14.95;7.10;;;1.60;99.90;;;;;;4930664;29;20028;-73
2022/12/10 06:27:15;;;;;;;10.20;6.65;;;;;;;;;;4930126;29;20112;-73
2022/12/10 06:29:41;;;;;;;11.35;5.50;;;1.60;99.90;;;;;;4930195;29;20494;-73
2022/12/10 06:32:07;;;;;;;14.88;6.47;;;;;;;;;;4930309;29;20034;-74
2022/12/10 06:34:32;;;;;;;17.85;7.05;;;1.70;99.90;;;;;;4961121;28;20539;-74
2022/12/10 06:36:58;;;;;;;19.63;7.32;;;;;;;;;;4960875;28;20074;-73
2022/12/10 06:39:24;;;;;;;16.10;8.20;;;1.50;99.90;;;;;;4930420;29;20024;-73
2022/12/10 06:41:50;;;;;;;18.45;9.23;;;1.60;99.90;;;;;;4930238;29;20027;-74
2022/12/10 06:44:16;;;;;;;14.43;7.45;;;;;;;;;;4929931;29;20745;-73
2022/12/10 06:46:42;;;;;;;16.60;7.30;;;;;;;;;;4930120;29;20036;-74
2022/12/10 06:49:08;;;;;;;13.27;5.97;;;1.60;99.90;;;;;;4930333;29;20059;-74
2022/12/10 06:51:34;;;;;;;20.80;6.82;;;;;;;;;;4929994;29;20078;-74
2022/12/10 06:54:00;;;;;;;11.90;6.20;;;1.70;99.90;;;;;;4929843;29;20091;-74
2022/12/10 06:56:26;;;;;;;13.23;6.10;;;1.50;99.90;;;;;;4929850;29;20047;-73
2022/12/10 06:58:52;;;;;;;12.10;5.05;;;;;;;;;;4929767;29;20059;-74
2022/12/10 07:01:20;;;;;;;15.13;6.00;;;1.60;99.90;;;;;;4930016;29;20034;-73
2022/12/10 07:03:54;;;;;;;17.95;9.43;;;1.70;99.90;;;;;;4929838;29;20032;-74
2022/12/10 07:06:21;;;;;;;11.13;6.13;;;2.00;99.90;;;;;;4929867;29;20512;-73
2022/12/10 07:08:47;;;;;;;13.13;6.53;;;1.70;99.90;;;;;;4929739;29;20042;-73
2022/12/10 07:11:15;;;;;;;13.73;5.80;;;1.80;99.90;;;;;;4929695;29;20028;-73
2022/12/10 07:13:41;;;;;;;12.88;6.30;;;1.50;99.90;;;;;;4929591;29;20050;-73
2022/12/10 07:16:18;;;;;;;10.27;4.72;;;1.40;99.90;;;;;;4929631;29;20027;-74
2022/12/10 07:18:44;;;;;;;7.10;4.53;;;1.40;99.90;;;;;;4928226;29;20019;-73
2022/12/10 07:21:17;;;;;;;6.07;4.03;;;1.80;99.90;;;;;;4929524;29;20037;-73
2022/12/10 07:23:43;;;;;;;8.57;4.93;;;;;;;;;;4929311;29;20038;-73
2022/12/10 07:26:09;;;;;;;10.00;4.70;;;;;;;;;;4929426;29;20016;-73
2022/12/10 07:28:35;;;;;;;10.10;4.35;;;;;;;;;;4929047;29;20031;-73
2022/12/10 07:31:02;;;;;;;7.65;4.18;;;1.30;99.90;;;;;;4933008;29;20622;-74
2022/12/10 07:33:28;;;;;;;15.85;5.15;;;;;;;;;;4933486;29;20035;-74
2022/12/10 07:35:54;;;;;;;8.30;3.22;;;1.20;99.90;;;;;;4933519;29;20067;-74
2022/12/10 07:38:20;;;;;;;5.97;3.95;;;;;;;;;;4933251;29;20032;-73
2022/12/10 07:40:46;;;;;;;8.20;4.80;;;;;;;;;;4933310;29;20031;-73
2022/12/10 07:43:12;;;;;;;7.47;3.47;;;;;;;;;;4932835;29;20035;-73
2022/12/10 07:45:38;;;;;;;16.10;6.38;;;;;;;;;;4933096;29;20035;-73
2022/12/10 07:48:03;;;;;;;6.35;3.30;;;1.00;99.90;;;;;;4932852;29;20055;-74
2022/12/10 07:50:29;;;;;;;8.52;3.65;;;1.30;99.90;;;;;;4933076;29;20039;-73
2022/12/10 07:52:54;;;;;;;7.70;3.80;;;1.40;99.90;;;;;;4932626;29;20031;-73
2022/12/10 07:55:20;;;;;;;7.82;5.22;;;;;;;;;;4933515;29;20115;-73
2022/12/10 07:57:46;;;;;;;9.38;5.05;;;;;;;;;;4932740;29;20413;-73
2022/12/10 08:00:13;;;;;;;12.23;4.30;;;;;;;;;;4933277;29;20023;-73
2022/12/10 08:02:39;;;;;;;7.85;3.60;;;;;;;;;;4932738;29;20031;-74
2022/12/10 08:05:05;;;;;;;12.60;4.25;;;;;;;;;;4932933;29;20031;-74
2022/12/10 08:07:31;;;;;;;4.55;2.72;;;;;;;;;;4932550;29;20036;-73
2022/12/10 08:09:57;;;;;;;7.10;2.72;;;;;;;;;;4932834;29;20744;-74
2022/12/10 08:12:23;;;;;;;7.53;3.60;;;;;;;;;;4932126;29;20032;-73
2022/12/10 08:14:49;;;;;;;5.50;3.63;;;;;;;;;;4932374;29;20031;-73
2022/12/10 08:17:15;;;;;;;6.40;3.60;;;;;;;;;;4932135;29;20040;-73
2022/12/10 08:19:41;;;;;;;9.68;3.47;;;;;;;;;;4932657;29;20164;-74
2022/12/10 08:22:07;;;;;;;4.50;2.63;;;;;;;;;;4963038;28;20397;-74
2022/12/10 08:24:33;;;;;;;4.85;3.65;;;;;;;;;;4930950;29;20029;-73
2022/12/10 08:26:58;;;;;;;4.18;3.25;;;1.50;99.90;;;;;;4932123;29;20031;-74
2022/12/10 08:29:24;;;;;;;6.68;3.28;;;;;;;;;;4932143;29;20164;-74
2022/12/10 08:31:50;;;;;;;4.82;2.42;;;;;;;;;;4931969;29;20462;-73
2022/12/10 08:34:18;;;;;;;5.72;2.42;;;1.50;99.90;;;;;;4932410;29;20075;-74
2022/12/10 08:36:45;;;;;;;9.20;3.42;;;1.50;99.90;;;;;;4932195;29;20086;-73
2022/12/10 08:39:15;;;;;;;5.43;4.57;;;1.40;99.90;;;;;;4932262;29;20027;-73
2022/12/10 08:41:41;;;;;;;8.93;3.03;;;0.60;99.90;;;;;;4931570;29;20084;-73
2022/12/10 08:44:07;;;;;;;4.88;2.80;;;1.10;99.90;;;;;;4931761;29;20501;-74
2022/12/10 08:46:33;;;;;;;9.48;3.78;;;;;;;;;;4932197;29;20035;-73
2022/12/10 08:48:59;;;;;;;5.30;2.85;;;1.60;99.90;;;;;;4931818;29;20031;-74
2022/12/10 08:51:25;;;;;;;4.85;1.90;;;1.50;99.90;;;;;;4931862;29;20035;-73
2022/12/10 08:53:51;;;;;;;2.33;2.13;;;;;;;;;;4931591;29;20603;-73
2022/12/10 08:56:17;;;;;;;4.32;2.75;;;;;;;;;;4931786;29;20058;-73
2022/12/10 08:58:43;;;;;;;3.17;2.00;;;;;;;;;;4931893;29;20070;-73
2022/12/10 09:01:11;;;;;;;8.65;3.53;;;1.80;99.90;;;;;;4931953;29;20024;-73
2022/12/10 09:03:37;;;;;;;5.90;2.15;;;1.80;99.90;;;;;;4931875;29;20034;-74
2022/12/10 09:06:05;;;;;;;5.38;2.20;;;1.90;99.90;;;;;;4931566;29;20040;-74
2022/12/10 09:08:31;;;;;;;5.22;2.58;;;1.90;99.90;;;;;;4931538;29;20024;-73
2022/12/10 09:10:56;;;;;;;4.72;2.60;;;1.80;99.90;;;;;;4931393;29;20035;-73
2022/12/10 09:13:22;;;;;;;3.78;2.58;;;;;;;;;;4931671;29;20020;-73
2022/12/10 09:15:52;;;;;;;3.15;2.53;;;1.90;99.90;;;;;;4931418;29;20580;-73
2022/12/10 09:18:18;;;;;;;6.82;2.38;;;;;;;;;;4931857;29;20027;-73
2022/12/10 09:20:44;;;;;;;6.93;2.45;;;;;;;;;;4931407;29;20138;-74
2022/12/10 09:23:10;;;;;;;4.85;2.20;;;1.60;99.90;;;;;;4930862;29;20027;-73
2022/12/10 09:25:36;;;;;;;3.45;2.38;;;;;;;;;;4931354;29;20043;-74
2022/12/10 09:28:02;;;;;;;5.00;2.85;;;1.60;99.90;;;;;;4931351;29;20034;-74
2022/12/10 09:30:27;;;;;;;6.68;2.47;;;1.40;99.90;;;;;;4931270;29;20036;-73
2022/12/10 09:32:53;;;;;;;5.03;2.72;;;;;;;;;;4930906;29;20023;-73
2022/12/10 09:35:19;;;;;;;2.40;2.20;;;;;;;;;;4931052;29;20031;-74
2022/12/10 09:37:45;;;;;;;4.20;2.30;;;;;;;;;;4930880;29;20035;-73
2022/12/10 09:40:32;;;;;;;9.70;4.18;;;1.60;99.90;;;;;;4930858;29;20117;-73
2022/12/10 09:43:11;;;;;;;2.40;1.90;;;1.60;99.90;;;;;;4931445;29;20729;-73
2022/12/10 09:45:50;;;;;;;6.47;3.13;;;1.40;99.90;;;;;;4930862;29;20153;-74
2022/12/10 09:48:47;;;;;;;2.90;2.28;;;1.30;99.90;;;;;;4931060;29;20096;-73
2022/12/10 09:51:24;;;;;;;4.15;3.03;;;1.20;99.90;;;;;;4930879;29;20054;-74
2022/12/10 09:53:58;;;;;;;5.13;3.55;;;1.10;99.90;;;;;;4930237;29;20600;-74
2022/12/10 09:56:28;;;;;;;5.10;3.60;;;1.20;99.90;;;;;;4918867;29;20043;-74
2022/12/10 09:58:54;;;;;;;9.07;3.78;;;1.60;99.90;;;;;;4931144;29;20098;-74
2022/12/10 10:01:24;;;;;;;7.72;2.08;;;1.30;99.90;;;;;;4930695;29;20124;-73
2022/12/10 10:03:50;;;;;;;7.95;4.40;;;;;;;;;;4930838;29;20572;-74
2022/12/10 10:06:16;;;;;;;4.40;3.30;;;;;;;;;;4930750;29;20541;-73
2022/12/10 10:08:53;;;;;;;11.93;5.28;;;1.30;99.90;;;;;;4930373;29;20034;-74
2022/12/10 10:11:22;;;;;;;7.95;4.47;;;1.20;99.90;;;;;;4930570;29;20023;-74
2022/12/10 10:14:20;;;;;;;7.78;3.35;;;1.20;99.90;;;;;;4930227;29;20036;-74
2022/12/10 10:16:56;;;;;;;6.45;3.65;;;1.20;99.90;;;;;;4925908;29;20079;-73
2022/12/10 10:19:27;;;;;;;5.00;3.20;;;1.10;99.90;;;;;;4930653;29;20055;-73
2022/12/10 10:21:54;;;;;;;7.05;3.80;;;0.90;99.90;;;;;;4930360;29;20040;-73
2022/12/10 10:24:23;;;;;;;5.35;2.47;;;1.10;99.90;;;;;;4930146;29;20504;-74
2022/12/10 10:26:51;;;;;;;4.85;3.17;;;1.00;99.90;;;;;;4930354;29;20031;-74
2022/12/10 10:29:20;;;;;;;8.85;3.20;;;1.10;99.90;;;;;;4930309;29;20024;-73
2022/12/10 10:31:46;;;;;;;5.68;3.10;;;;;;;;;;4930295;28;20045;-73
2022/12/10 10:34:19;;;;;;;9.98;4.38;;;1.20;99.90;;;;;;4930234;29;20023;-72
2022/12/10 10:36:45;;;;;;;3.50;3.08;;;1.10;99.90;;;;;;4929755;29;20517;-74
2022/12/10 10:39:32;;;;;;;6.05;2.78;;;1.10;99.90;;;;;;4930119;29;20087;-73
2022/12/10 10:42:00;;;;;;;10.30;4.30;;;0.90;99.90;;;;;;4929933;29;20058;-73
2022/12/10 10:44:35;;;;;;;4.65;3.70;;;1.10;99.90;;;;;;4929744;29;20050;-73
2022/12/10 10:47:01;;;;;;;8.38;4.38;;;;;;;;;;4928763;29;20027;-73
2022/12/10 10:49:29;;;;;;;12.70;7.05;;;1.20;99.90;;;;;;4930577;29;20405;-73
2022/12/10 10:52:00;;;;;;;9.18;3.25;;;1.20;99.90;;;;;;4929532;29;20519;-73
2022/12/10 10:54:34;;;;;;;8.68;4.57;;;1.20;99.90;;;;;;4929604;29;20151;-74
2022/12/10 10:57:42;;;;;;;4.65;2.80;;;1.20;99.90;;;;;;4929628;29;20078;-73
2022/12/10 11:00:28;;;;;;;10.38;5.45;;;1.20;99.90;;;;;;4908159;29;20100;-73
2022/12/10 11:02:54;;;;;;;13.45;4.13;;;;;;;;;;4891987;29;20421;-73
2022/12/10 11:05:26;;;;;;;6.18;4.30;;;1.00;99.90;;;;;;4907211;29;20050;-73
2022/12/10 11:08:04;;;;;;;10.50;5.65;;;1.00;99.90;;;;;;4908108;29;20091;-74
2022/12/10 11:10:30;;;;;;;12.80;4.35;;;;;;;;;;4907896;29;20039;-73
2022/12/10 11:13:04;;;;;;;5.93;4.05;;;1.10;99.90;;;;;;4908045;29;20020;-73
2022/12/10 11:15:31;;;;;;;9.50;5.07;;;1.10;99.90;;;;;;4907273;29;20040;-73
2022/12/10 11:17:57;;;;;;;10.10;4.75;;;1.10;99.90;;;;;;4908174;29;20054;-73
2022/12/10 11:20:29;;;;;;;5.22;3.50;;;1.20;99.90;;;;;;4906944;29;20426;-74
2022/12/10 11:22:57;;;;;;;9.63;5.65;;;1.10;99.90;;;;;;4907941;29;20087;-73
2022/12/10 11:25:34;;;;;;;18.55;6.18;;;0.90;99.90;;;;;;4907589;29;20072;-74
2022/12/10 11:28:20;;;;;;;8.00;4.28;;;1.10;99.90;;;;;;4908154;29;20024;-73
2022/12/10 11:31:06;;;;;;;9.77;5.15;;;1.10;99.90;;;;;;4914894;29;20040;-73
2022/12/10 11:33:46;;;;;;;5.93;4.32;;;1.10;99.90;;;;;;4928030;29;20548;-73
2022/12/10 11:36:43;;;;;;;9.20;4.93;;;1.00;99.90;;;;;;4929342;29;20044;-73
2022/12/10 11:39:54;;;;;;;8.45;3.97;;;1.00;99.90;;;;;;4929794;29;20027;-73
2022/12/10 11:42:48;;;;;;;6.90;4.35;;;1.10;99.90;;;;;;4929716;28;20225;-74
2022/12/10 11:45:25;;;;;;;13.05;5.60;;;1.10;99.90;;;;;;4926946;28;20043;-74
2022/12/10 11:48:28;;;;;;;8.35;5.85;;;1.10;99.90;;;;;;4929271;29;20050;-74
2022/12/10 11:51:04;;;;;;;12.13;5.53;;;3.30;99.90;;;;;;4929481;29;20038;-74
2022/12/10 11:54:03;;;;;;;8.35;3.95;;;1.30;99.90;;;;;;4929071;29;20047;-74
2022/12/10 11:56:43;;;;;;;9.98;4.68;;;1.60;99.90;;;;;;4959573;28;20046;-73
2022/12/10 11:59:28;;;;;;;10.82;5.35;;;1.40;99.90;;;;;;4929693;29;20019;-73
2022/12/10 12:02:39;;;;;;;11.63;7.05;;;1.40;99.90;;;;;;4929455;29;20122;-74
2022/12/10 12:05:29;;;;;;;8.07;3.58;;;1.50;99.90;;;;;;4908269;29;20088;-73
2022/12/10 12:07:55;;;;;;;10.00;5.53;;;;;;;;;;4908833;29;20064;-73
2022/12/10 12:10:41;;;;;;;6.78;4.32;;;1.60;99.90;;;;;;4908286;29;20040;-73
2022/12/10 12:13:18;;;;;;;4.82;4.30;;;1.40;99.90;;;;;;4908166;29;20036;-74
2022/12/10 12:15:51;;;;;;;5.75;4.03;;;1.60;99.90;;;;;;4909070;29;20032;-73
2022/12/10 12:18:21;;;;;;;7.20;4.00;;;1.60;99.90;;;;;;4911788;29;20139;-74
2022/12/10 12:20:53;;;;;;;8.57;4.65;;;1.60;99.90;;;;;;4911983;29;20032;-74
2022/12/10 12:23:50;;;;;;;11.20;5.45;;;1.60;99.90;;;;;;4911215;29;20127;-73
2022/12/10 12:26:54;;;;;;;10.68;5.43;;;1.70;99.90;;;;;;4909568;29;20047;-73
2022/12/10 12:29:48;;;;;;;10.40;3.83;;;1.50;99.90;;;;;;4921145;29;20035;-74
2022/12/10 12:32:25;;;;;;;9.32;4.32;;;1.70;99.90;;;;;;4925508;29;20087;-73
2022/12/10 12:35:06;;;;;;;8.02;3.72;;;1.40;99.90;;;;;;4929380;29;20032;-74
2022/12/10 12:37:44;;;;;;;9.05;4.13;;;1.60;99.90;;;;;;4929422;29;20059;-74
2022/12/10 12:40:28;;;;;;;10.13;5.10;;;0.60;99.90;;;;;;4931858;29;20378;-74
2022/12/10 12:43:29;;;;;;;13.32;5.20;;;1.60;99.90;;;;;;4932455;29;20095;-73
2022/12/10 12:45:55;;;;;;;7.47;4.78;;;1.60;99.90;;;;;;4920218;29;20032;-73
2022/12/10 12:48:41;;;;;;;7.55;4.53;;;1.60;99.90;;;;;;4928725;29;20092;-74
2022/12/10 12:51:10;;;;;;;7.57;3.10;;;1.60;99.40;;;;;;4928742;29;20719;-74
2022/12/10 12:53:36;;;;;;;4.85;3.55;;;2.00;99.00;;;;;;4914590;29;20070;-73
2022/12/10 12:56:19;;;;;;;9.77;6.22;;;1.70;99.20;;;;;;4910518;29;20032;-74
2022/12/10 12:58:45;;;;;;;7.32;4.13;;;;;;;;;;4911082;29;20119;-73
2022/12/10 13:01:41;;;;;;;9.55;3.72;;;1.80;99.90;;;;;;4910584;29;20515;-73
2022/12/10 13:04:07;;;;;;;20.83;6.72;;;1.90;97.60;;;;;;4910542;29;20458;-73
2022/12/10 13:06:35;;;;;;;8.77;5.05;;;2.10;99.90;;;;;;4917293;29;20028;-73
2022/12/10 13:09:13;;;;;;;7.70;3.65;;;1.90;99.90;;;;;;4928425;29;20122;-73
2022/12/10 13:11:58;;;;;;;6.88;4.03;;;2.10;98.40;;;;;;4928670;29;20032;-73
2022/12/10 13:14:52;;;;;;;8.73;5.25;;;2.20;95.60;;;;;;4856433;29;20037;-73
2022/12/10 13:17:27;;;;;;;7.15;4.55;;;2.30;99.90;;;;;;4860301;29;20093;-73
2022/12/10 13:20:13;;;;;;;6.32;4.28;;;2.00;99.90;;;;;;4872772;29;20080;-74
2022/12/10 13:22:39;;;;;;;7.90;4.15;;;;;;;;;;4863862;29;20165;-74
2022/12/10 13:25:09;;;;;;;11.20;4.85;;;2.10;98.20;;;;;;4853818;29;20839;-73
2022/12/10 13:27:35;;;;;;;8.50;3.85;;;2.10;95.40;;;;;;4849720;29;20462;-74
2022/12/10 13:30:07;;;;;;;8.50;3.92;;;2.70;99.90;;;;;;4847466;29;20112;-74
2022/12/10 13:32:33;;;;;;;8.23;4.68;;;;;;;;;;4841634;29;20049;-74
2022/12/10 13:35:28;;;;;;;14.48;6.80;;;2.20;95.90;;;;;;4853913;29;20584;-74
2022/12/10 13:38:02;;;;;;;14.52;6.28;;;2.00;96.20;;;;;;4846523;29;20053;-73
2022/12/10 13:44:23;;;;;;;9.32;5.63;;;2.20;96.20;;;;;;4853698;29;20193;-73
2022/12/10 13:46:33;;;;;;;12.35;5.20;;;2.20;96.20;;;;;;4848485;29;20078;-73
2022/12/10 13:49:02;;;;;;;11.00;5.57;;;2.30;95.70;;;;;;4853829;29;20054;-73
2022/12/10 13:51:28;;;;;;;4.82;2.95;;;;;;;;;;4889971;29;20386;-74
2022/12/10 13:54:12;;;;;;;12.48;4.57;;;2.30;95.30;;;;;;4931150;29;20043;-74